createdAt,value
2018-08-11T00:01:12.215Z,81.50
2018-08-11T00:03:40.729Z,81.60
2018-08-11T00:06:09.260Z,81.10
2018-08-11T00:08:37.727Z,80.40
2018-08-11T00:11:06.213Z,80.20
2018-08-11T00:13:34.783Z,80.20
2018-08-11T00:18:31.599Z,80.20
2018-08-11T00:21:00.220Z,81.60
2018-08-11T00:23:28.762Z,80.60
2018-08-11T00:25:57.278Z,80.40
2018-08-11T00:28:25.796Z,80.00
2018-08-11T00:30:54.336Z,80.00
2018-08-11T00:33:22.913Z,79.30
2018-08-11T00:35:51.359Z,80.10
2018-08-11T00:38:19.878Z,79.80
2018-08-11T00:40:48.414Z,79.60
2018-08-11T00:43:17.201Z,79.70
2018-08-11T00:45:45.680Z,79.30
2018-08-11T00:48:14.089Z,79.40
2018-08-11T00:50:43.772Z,79.50
2018-08-11T00:53:12.236Z,79.60
2018-08-11T00:55:40.690Z,79.70
2018-08-11T00:58:09.106Z,79.80
2018-08-11T01:00:37.652Z,80.30
2018-08-11T01:03:06.403Z,78.80
2018-08-11T01:05:34.898Z,80.20
2018-08-11T01:08:03.527Z,80.00
2018-08-11T01:10:31.903Z,79.90
2018-08-11T01:15:28.623Z,79.80
2018-08-11T01:17:57.132Z,80.40
2018-08-11T01:20:25.675Z,80.30
2018-08-11T01:22:54.273Z,79.90
2018-08-11T01:25:22.798Z,78.20
2018-08-11T01:27:51.337Z,78.80
2018-08-11T01:30:21.740Z,79.60
2018-08-11T01:32:50.407Z,79.20
2018-08-11T01:35:18.919Z,78.10
2018-08-11T01:37:47.527Z,77.70
2018-08-11T01:40:16.847Z,77.40
2018-08-11T01:42:46.496Z,77.80
2018-08-11T01:45:15.491Z,78.20
2018-08-11T01:47:44.229Z,78.60
2018-08-11T01:50:14.422Z,78.80
2018-08-11T01:52:43.932Z,78.70
2018-08-11T01:55:13.647Z,78.70
2018-08-11T01:57:42.472Z,78.50
2018-08-11T02:00:12.548Z,78.60
2018-08-11T02:02:41.684Z,78.30
2018-08-11T02:05:11.006Z,78.20
2018-08-11T02:07:40.552Z,77.60
2018-08-11T02:10:13.720Z,77.40
2018-08-11T02:12:42.273Z,76.50
2018-08-11T02:15:12.177Z,76.90
2018-08-11T02:17:40.663Z,76.60
2018-08-11T02:20:11.840Z,76.30
2018-08-11T02:27:37.873Z,76.50
2018-08-11T02:30:08.046Z,77.20
2018-08-11T02:32:36.551Z,78.30
2018-08-11T02:35:06.141Z,78.30
2018-08-11T02:37:34.631Z,78.00
2018-08-11T02:40:03.375Z,78.10
2018-08-11T02:42:31.781Z,78.00
2018-08-11T02:45:00.314Z,77.80
2018-08-11T02:47:28.769Z,77.60
2018-08-11T02:49:57.285Z,76.70
2018-08-11T02:52:25.863Z,77.20
2018-08-11T02:54:54.254Z,77.40
2018-08-11T02:57:22.664Z,77.40
2018-08-11T02:59:52.388Z,77.20
2018-08-11T03:02:21.217Z,76.90
2018-08-11T03:04:49.642Z,76.80
2018-08-11T03:07:18.135Z,77.40
2018-08-11T03:09:46.594Z,77.20
2018-08-11T03:12:29.579Z,77.70
2018-08-11T03:14:58.088Z,76.60
2018-08-11T03:17:26.586Z,76.50
2018-08-11T03:19:54.971Z,76.40
2018-08-11T03:22:23.384Z,77.50
2018-08-11T03:24:51.822Z,76.40
2018-08-11T03:27:20.310Z,76.80
2018-08-11T03:29:48.771Z,76.50
2018-08-11T03:32:17.122Z,75.90
2018-08-11T03:37:13.659Z,75.40
2018-08-11T03:39:42.076Z,76.00
2018-08-11T03:42:10.535Z,75.90
2018-08-11T03:44:39.059Z,75.30
2018-08-11T03:47:07.507Z,75.20
2018-08-11T03:49:35.965Z,76.00
2018-08-11T03:52:04.365Z,76.60
2018-08-11T03:54:32.757Z,76.90
2018-08-11T03:57:01.198Z,77.20
2018-08-11T03:59:29.567Z,76.90
2018-08-11T04:01:58.027Z,76.20
2018-08-11T04:04:26.498Z,76.60
2018-08-11T04:06:54.971Z,76.60
2018-08-11T04:09:23.417Z,76.50
2018-08-11T04:11:51.849Z,76.30
2018-08-11T04:14:20.410Z,76.90
2018-08-11T04:16:48.957Z,77.10
2018-08-11T04:19:17.486Z,77.20
2018-08-11T04:21:46.228Z,77.00
2018-08-11T04:24:14.686Z,75.90
2018-08-11T04:26:43.150Z,80.60
2018-08-11T04:29:11.678Z,82.10
2018-08-11T04:31:40.086Z,76.50
2018-08-11T04:34:08.647Z,76.20
2018-08-11T04:36:37.112Z,76.40
2018-08-11T04:39:07.664Z,77.00
2018-08-11T04:41:36.246Z,77.90
2018-08-11T04:44:04.734Z,77.20
2018-08-11T04:46:33.172Z,77.60
2018-08-11T04:49:01.632Z,77.80
2018-08-11T04:51:30.135Z,77.70
2018-08-11T04:53:58.551Z,76.40
2018-08-11T04:56:26.971Z,77.20
2018-08-11T04:58:55.391Z,77.60
2018-08-11T05:01:23.946Z,78.10
2018-08-11T05:03:52.468Z,77.90
2018-08-11T05:06:21.013Z,78.30
2018-08-11T05:08:49.499Z,78.80
2018-08-11T05:11:17.856Z,79.40
2018-08-11T05:13:46.372Z,79.70
2018-08-11T05:16:14.909Z,79.80
2018-08-11T05:18:43.408Z,80.40
2018-08-11T05:21:11.853Z,81.90
2018-08-11T05:23:40.272Z,81.80
2018-08-11T05:26:08.724Z,86.70
2018-08-11T05:28:37.100Z,91.70
2018-08-11T05:31:05.598Z,84.60
2018-08-11T05:33:34.062Z,83.10
2018-08-11T05:40:58.821Z,82.30
2018-08-11T05:43:27.282Z,83.30
2018-08-11T05:45:55.680Z,83.50
2018-08-11T05:48:24.070Z,84.00
2018-08-11T05:50:52.439Z,83.90
2018-08-11T05:53:20.887Z,83.80
2018-08-11T05:55:49.333Z,83.20
2018-08-11T05:58:17.754Z,83.00
2018-08-11T06:00:46.195Z,82.50
2018-08-11T06:03:14.610Z,81.60
2018-08-11T06:05:43.077Z,81.80
2018-08-11T06:08:11.508Z,82.00
2018-08-11T06:10:40.013Z,82.30
2018-08-11T06:13:08.548Z,82.20
2018-08-11T06:15:36.972Z,82.10
2018-08-11T06:18:05.765Z,82.80
2018-08-11T06:20:34.184Z,82.50
2018-08-11T06:23:02.712Z,82.60
2018-08-11T06:25:31.239Z,82.50
2018-08-11T06:27:59.708Z,83.30
2018-08-11T06:30:28.601Z,83.00
2018-08-11T06:32:56.978Z,82.60
2018-08-11T06:35:25.448Z,84.80
2018-08-11T06:37:53.913Z,85.70
2018-08-11T06:40:22.462Z,83.10
2018-08-11T06:42:50.864Z,82.30
2018-08-11T06:45:20.247Z,82.10
2018-08-11T06:47:48.611Z,81.90
2018-08-11T06:50:17.062Z,82.70
2018-08-11T06:52:45.447Z,83.20
2018-08-11T06:55:13.918Z,83.10
2018-08-11T06:57:42.343Z,82.60
2018-08-11T07:00:10.904Z,82.40
2018-08-11T07:02:39.465Z,82.30
2018-08-11T07:05:08.030Z,80.90
2018-08-11T07:07:36.485Z,80.60
2018-08-11T07:10:05.317Z,81.20
2018-08-11T07:12:33.849Z,80.40
2018-08-11T07:15:02.330Z,79.40
2018-08-11T07:17:31.123Z,79.40
2018-08-11T07:19:59.621Z,79.90
2018-08-11T07:22:28.098Z,80.20
2018-08-11T07:24:56.542Z,79.70
2018-08-11T07:27:25.052Z,79.90
2018-08-11T07:29:53.572Z,78.80
2018-08-11T07:32:22.017Z,77.20
2018-08-11T07:34:50.536Z,74.50
2018-08-11T07:37:19.045Z,74.10
2018-08-11T07:39:47.505Z,73.30
2018-08-11T07:44:44.070Z,71.20
2018-08-11T07:47:12.598Z,71.10
2018-08-11T07:49:41.023Z,67.30
2018-08-11T07:52:09.421Z,65.10
2018-08-11T07:54:37.770Z,64.10
2018-08-11T07:57:06.163Z,66.40
2018-08-11T07:59:34.872Z,66.10
2018-08-11T08:02:03.299Z,64.50
2018-08-11T08:04:31.859Z,64.20
2018-08-11T08:07:00.289Z,63.20
2018-08-11T08:09:28.714Z,61.80
2018-08-11T08:11:57.196Z,63.50
2018-08-11T08:14:25.605Z,63.80
2018-08-11T08:16:54.213Z,63.80
2018-08-11T08:19:22.740Z,61.20
2018-08-11T08:21:51.189Z,62.40
2018-08-11T08:24:19.697Z,61.20
2018-08-11T08:26:48.334Z,62.00
2018-08-11T08:29:16.676Z,61.10
2018-08-11T08:31:45.985Z,61.10
2018-08-11T08:34:14.513Z,60.80
2018-08-11T08:36:43.029Z,58.40
2018-08-11T08:39:12.645Z,59.10
2018-08-11T08:41:41.413Z,59.50
2018-08-11T08:44:10.032Z,60.50
2018-08-11T08:49:06.605Z,58.70
2018-08-11T08:51:35.072Z,56.20
2018-08-11T08:54:03.505Z,56.20
2018-08-11T08:56:32.089Z,55.10
2018-08-11T08:59:00.507Z,54.30
2018-08-11T09:01:28.916Z,54.10
2018-08-11T09:03:57.489Z,55.00
2018-08-11T09:06:25.957Z,55.00
2018-08-11T09:08:54.387Z,55.10
2018-08-11T09:11:22.892Z,52.10
2018-08-11T09:13:51.486Z,53.10
2018-08-11T09:16:19.926Z,53.30
2018-08-11T09:18:48.428Z,52.90
2018-08-11T09:21:16.999Z,49.80
2018-08-11T09:23:45.676Z,50.00
2018-08-11T09:27:38.672Z,51.20
2018-08-11T09:30:08.622Z,51.30
2018-08-11T09:32:38.143Z,52.80
2018-08-11T09:35:06.777Z,51.10
2018-08-11T09:37:35.317Z,51.80
2018-08-11T09:40:03.829Z,49.70
2018-08-11T09:42:32.342Z,49.10
2018-08-11T09:45:00.866Z,50.90
2018-08-11T09:47:29.381Z,50.00
2018-08-11T09:49:57.953Z,50.30
2018-08-11T09:52:26.549Z,50.60
2018-08-11T09:54:55.146Z,49.60
2018-08-11T09:57:23.634Z,51.10
2018-08-11T09:59:52.132Z,51.90
2018-08-11T10:02:21.760Z,51.90
2018-08-11T10:04:51.270Z,48.70
2018-08-11T10:07:19.880Z,49.70
2018-08-11T10:09:48.346Z,50.10
2018-08-11T10:12:17.229Z,56.80
2018-08-11T10:14:45.799Z,52.00
2018-08-11T10:19:42.757Z,50.10
2018-08-11T10:22:11.298Z,50.30
2018-08-11T10:27:07.872Z,48.50
2018-08-11T10:29:37.432Z,46.30
2018-08-11T10:32:06.012Z,47.70
2018-08-11T10:34:34.427Z,48.20
2018-08-11T10:37:02.992Z,48.30
2018-08-11T10:39:31.444Z,48.20
2018-08-11T10:41:59.916Z,47.90
2018-08-11T10:44:28.541Z,45.70
2018-08-11T10:46:57.032Z,46.20
2018-08-11T10:49:25.412Z,48.60
2018-08-11T10:51:53.869Z,49.60
2018-08-11T10:54:22.367Z,49.70
2018-08-11T10:56:50.766Z,50.90
2018-08-11T10:59:19.061Z,48.40
2018-08-11T11:01:47.415Z,49.30
2018-08-11T11:04:17.095Z,48.60
2018-08-11T11:06:45.661Z,48.90
2018-08-11T11:09:14.413Z,47.90
2018-08-11T11:11:43.041Z,46.70
2018-08-11T11:14:11.725Z,46.60
2018-08-11T11:16:40.271Z,46.50
2018-08-11T11:19:08.820Z,47.40
2018-08-11T11:21:37.332Z,46.40
2018-08-11T11:24:05.964Z,46.70
2018-08-11T11:26:34.443Z,46.70
2018-08-11T11:29:03.025Z,46.90
2018-08-11T11:31:31.795Z,46.70
2018-08-11T11:34:00.248Z,47.40
2018-08-11T11:36:28.646Z,47.30
2018-08-11T11:38:57.088Z,47.30
2018-08-11T11:41:25.564Z,46.20
2018-08-11T11:43:54.091Z,46.50
2018-08-11T11:46:23.643Z,46.10
2018-08-11T11:48:52.263Z,46.60
2018-08-11T11:51:20.918Z,46.20
2018-08-11T11:53:50.442Z,46.80
2018-08-11T11:56:18.998Z,46.80
2018-08-11T11:58:47.723Z,46.40
2018-08-11T12:01:16.173Z,47.30
2018-08-11T12:03:44.609Z,44.90
2018-08-11T12:06:13.080Z,45.40
2018-08-11T12:08:41.803Z,45.90
2018-08-11T12:11:10.467Z,46.00
2018-08-11T12:13:41.166Z,45.50
2018-08-11T12:16:09.684Z,45.50
2018-08-11T12:18:38.087Z,45.20
2018-08-11T12:21:06.471Z,44.40
2018-08-11T12:23:34.937Z,46.20
2018-08-11T12:28:32.039Z,50.70
2018-08-11T12:31:00.883Z,45.60
2018-08-11T12:33:29.325Z,46.10
2018-08-11T12:35:57.825Z,44.60
2018-08-11T12:38:26.444Z,43.90
2018-08-11T12:40:54.881Z,44.30
2018-08-11T12:43:23.365Z,43.40
2018-08-11T12:45:51.809Z,44.40
2018-08-11T12:48:20.324Z,45.30
2018-08-11T12:50:48.908Z,44.70
2018-08-11T12:53:17.702Z,44.90
2018-08-11T12:55:46.099Z,43.90
2018-08-11T12:58:14.756Z,44.40
2018-08-11T13:00:43.389Z,44.60
2018-08-11T13:03:12.200Z,45.00
2018-08-11T13:05:40.889Z,45.70
2018-08-11T13:08:09.482Z,44.80
2018-08-11T13:10:38.047Z,44.60
2018-08-11T13:13:06.790Z,45.30
2018-08-11T13:15:35.406Z,44.50
2018-08-11T13:18:03.919Z,44.50
2018-08-11T13:20:32.506Z,44.10
2018-08-11T13:23:01.009Z,42.70
2018-08-11T13:25:29.432Z,42.80
2018-08-11T13:27:58.093Z,44.00
2018-08-11T13:30:26.690Z,42.00
2018-08-11T13:32:55.187Z,41.80
2018-08-11T13:35:23.825Z,42.50
2018-08-11T13:37:52.408Z,43.40
2018-08-11T13:40:20.916Z,42.60
2018-08-11T13:42:49.392Z,42.80
2018-08-11T13:45:17.860Z,43.10
2018-08-11T13:47:46.738Z,43.40
2018-08-11T13:50:15.294Z,42.80
2018-08-11T13:52:43.818Z,43.40
2018-08-11T13:55:12.492Z,42.60
2018-08-11T13:57:41.000Z,43.90
2018-08-11T14:00:10.030Z,43.80
2018-08-11T14:02:38.631Z,44.50
2018-08-11T14:05:07.060Z,43.50
2018-08-11T14:07:35.679Z,43.50
2018-08-11T14:10:04.859Z,43.20
2018-08-11T14:12:33.407Z,42.70
2018-08-11T14:15:01.940Z,43.80
2018-08-11T14:17:32.459Z,43.80
2018-08-11T14:20:01.072Z,43.90
2018-08-11T14:22:29.587Z,42.80
2018-08-11T14:24:58.155Z,42.70
2018-08-11T14:27:26.711Z,41.60
2018-08-11T14:29:55.433Z,42.90
2018-08-11T14:32:23.975Z,48.10
2018-08-11T14:34:52.506Z,42.20
2018-08-11T14:37:20.998Z,42.10
2018-08-11T14:39:49.675Z,42.60
2018-08-11T14:42:18.241Z,43.10
2018-08-11T14:44:46.712Z,43.00
2018-08-11T14:47:15.235Z,43.50
2018-08-11T14:49:43.754Z,43.50
2018-08-11T14:52:12.389Z,42.30
2018-08-11T14:54:40.881Z,42.70
2018-08-11T14:57:09.429Z,42.40
2018-08-11T14:59:38.000Z,42.50
2018-08-11T15:02:07.769Z,42.60
2018-08-11T15:04:36.262Z,43.00
2018-08-11T15:07:04.657Z,42.40
2018-08-11T15:09:33.258Z,42.90
2018-08-11T15:12:01.794Z,42.80
2018-08-11T15:14:30.379Z,42.70
2018-08-11T15:16:58.876Z,42.90
2018-08-11T15:19:27.379Z,42.80
2018-08-11T15:21:55.814Z,42.80
2018-08-11T15:24:24.292Z,43.10
2018-08-11T15:26:52.777Z,42.50
2018-08-11T15:29:21.271Z,45.20
2018-08-11T15:31:49.759Z,43.70
2018-08-11T15:34:18.407Z,43.50
2018-08-11T15:36:46.971Z,43.50
2018-08-11T15:39:15.464Z,44.10
2018-08-11T15:41:44.027Z,43.50
2018-08-11T15:44:12.518Z,43.40
2018-08-11T15:46:41.094Z,43.60
2018-08-11T15:49:09.625Z,43.70
2018-08-11T15:51:38.156Z,44.20
2018-08-11T15:54:06.710Z,43.90
2018-08-11T15:56:35.251Z,44.00
2018-08-11T15:59:03.977Z,43.70
2018-08-11T16:01:32.517Z,43.00
2018-08-11T16:04:01.109Z,41.80
2018-08-11T16:06:29.769Z,42.00
2018-08-11T16:08:58.222Z,42.50
2018-08-11T16:11:26.590Z,43.70
2018-08-11T16:13:54.986Z,44.00
2018-08-11T16:16:23.504Z,43.70
2018-08-11T16:18:52.076Z,43.50
2018-08-11T16:21:20.634Z,43.30
2018-08-11T16:23:49.199Z,44.00
2018-08-11T16:26:17.794Z,43.60
2018-08-11T16:28:46.219Z,43.80
2018-08-11T16:31:14.596Z,44.50
2018-08-11T16:33:42.983Z,44.60
2018-08-11T16:36:11.563Z,42.80
2018-08-11T16:38:39.978Z,42.80
2018-08-11T16:41:08.541Z,44.10
2018-08-11T16:43:36.884Z,43.80
2018-08-11T16:48:33.797Z,43.50
2018-08-11T16:51:02.190Z,42.80
2018-08-11T16:53:30.751Z,43.40
2018-08-11T16:55:59.279Z,44.00
2018-08-11T16:58:27.754Z,44.70
2018-08-11T17:00:56.364Z,45.00
2018-08-11T17:03:24.915Z,44.90
2018-08-11T17:10:52.014Z,44.80
2018-08-11T17:13:20.783Z,44.90
2018-08-11T17:15:49.385Z,45.40
2018-08-11T17:18:18.223Z,46.00
2018-08-11T17:20:46.673Z,45.80
2018-08-11T17:23:15.239Z,46.40
2018-08-11T17:25:44.788Z,46.20
2018-08-11T17:28:13.357Z,45.30
2018-08-11T17:30:42.005Z,45.70
2018-08-11T17:33:10.632Z,45.30
2018-08-11T17:35:39.145Z,45.00
2018-08-11T17:38:07.825Z,43.80
2018-08-11T17:40:36.361Z,42.80
2018-08-11T17:43:04.977Z,44.10
2018-08-11T17:48:01.857Z,42.60
2018-08-11T17:50:30.590Z,43.60
2018-08-11T17:52:59.024Z,43.10
2018-08-11T17:55:27.630Z,44.40
2018-08-11T17:57:56.464Z,45.10
2018-08-11T18:00:26.060Z,46.00
2018-08-11T18:05:22.739Z,45.50
2018-08-11T18:07:51.041Z,46.50
2018-08-11T18:12:47.918Z,47.80
2018-08-11T18:15:16.560Z,48.70
2018-08-11T18:17:45.054Z,50.00
2018-08-11T18:20:14.127Z,51.30
2018-08-11T18:25:10.786Z,52.40
2018-08-11T18:27:39.411Z,53.00
2018-08-11T18:30:08.524Z,53.60
2018-08-11T18:32:37.140Z,53.90
2018-08-11T18:35:12.608Z,57.20
2018-08-11T18:37:41.216Z,58.20
2018-08-11T18:40:09.869Z,58.30
2018-08-11T18:42:38.562Z,56.40
2018-08-11T18:45:07.174Z,57.80
2018-08-11T18:47:35.801Z,58.30
2018-08-11T18:52:33.248Z,57.50
2018-08-11T18:55:01.882Z,58.10
2018-08-11T18:57:30.424Z,57.10
2018-08-11T18:59:58.906Z,57.50
2018-08-11T19:02:27.570Z,57.00
2018-08-11T19:04:56.283Z,57.40
2018-08-11T19:07:24.877Z,57.30
2018-08-11T19:09:54.482Z,57.70
2018-08-11T19:12:23.079Z,58.00
2018-08-11T19:14:51.620Z,58.30
2018-08-11T19:17:20.256Z,58.70
2018-08-11T19:19:48.975Z,59.30
2018-08-11T19:22:17.504Z,59.90
2018-08-11T19:24:46.024Z,60.50
2018-08-11T19:27:14.826Z,61.50
2018-08-11T19:29:44.516Z,62.40
2018-08-11T19:32:12.981Z,62.30
2018-08-11T19:34:41.513Z,62.60
2018-08-11T19:37:10.141Z,62.80
2018-08-11T19:39:38.760Z,62.50
2018-08-11T19:42:07.465Z,63.10
2018-08-11T19:44:35.934Z,64.50
2018-08-11T19:49:32.854Z,64.30
2018-08-11T19:52:01.377Z,65.90
2018-08-11T19:54:30.015Z,65.50
2018-08-11T19:56:58.456Z,64.90
2018-08-11T19:59:26.947Z,65.70
2018-08-11T20:01:55.616Z,65.60
2018-08-11T20:04:24.271Z,65.90
2018-08-11T20:06:52.912Z,66.00
2018-08-11T20:09:21.470Z,66.00
2018-08-11T20:11:49.949Z,65.40
2018-08-11T20:14:18.576Z,66.30
2018-08-11T20:16:47.169Z,66.40
2018-08-11T20:19:15.884Z,66.40
2018-08-11T20:21:44.275Z,65.30
2018-08-11T20:24:12.636Z,66.10
2018-08-11T20:26:41.298Z,66.90
2018-08-11T20:29:09.789Z,66.10
2018-08-11T20:31:38.190Z,65.80
2018-08-11T20:34:07.402Z,66.60
2018-08-11T20:36:35.834Z,66.40
2018-08-11T20:39:08.046Z,65.30
2018-08-11T20:41:36.621Z,66.10
2018-08-11T20:44:05.447Z,66.60
2018-08-11T20:46:34.332Z,66.30
2018-08-11T20:49:03.035Z,66.80
2018-08-11T20:53:59.921Z,66.90
2018-08-11T20:56:28.692Z,67.60
2018-08-11T20:58:57.215Z,67.50
2018-08-11T21:01:25.795Z,67.90
2018-08-11T21:03:54.441Z,67.60
2018-08-11T21:06:22.870Z,67.50
2018-08-11T21:08:52.531Z,67.10
2018-08-11T21:11:22.189Z,67.20
2018-08-11T21:13:51.600Z,68.10
2018-08-11T21:16:20.147Z,67.60
2018-08-11T21:18:48.680Z,68.80
2018-08-11T21:21:17.142Z,69.10
2018-08-11T21:23:46.872Z,69.40
2018-08-11T21:26:15.234Z,70.00
2018-08-11T21:28:44.037Z,70.20
2018-08-11T21:31:12.687Z,69.60
2018-08-11T21:33:41.277Z,70.40
2018-08-11T21:36:09.908Z,70.60
2018-08-11T21:38:38.550Z,71.10
2018-08-11T21:41:07.836Z,70.90
2018-08-11T21:43:36.517Z,69.50
2018-08-11T21:46:05.596Z,69.20
2018-08-11T21:48:34.453Z,68.90
2018-08-11T21:51:03.073Z,68.70
2018-08-11T21:53:31.667Z,69.40
2018-08-11T21:56:00.407Z,69.00
2018-08-11T21:58:35.671Z,68.90
2018-08-11T22:03:34.315Z,68.40
2018-08-11T22:06:02.855Z,68.50
2018-08-11T22:08:31.381Z,68.50
2018-08-11T22:10:59.979Z,69.20
2018-08-11T22:13:28.612Z,69.90
2018-08-11T22:15:57.159Z,70.90
2018-08-11T22:18:25.994Z,69.90
2018-08-11T22:21:00.510Z,69.50
2018-08-11T22:23:29.110Z,69.50
2018-08-11T22:26:02.010Z,69.50
2018-08-11T22:28:30.461Z,70.40
2018-08-11T22:30:58.731Z,71.40
2018-08-11T22:33:27.201Z,71.10
2018-08-11T22:36:05.366Z,70.60
2018-08-11T22:38:33.873Z,70.30
2018-08-11T22:41:02.464Z,71.10
2018-08-11T22:43:30.961Z,70.70
2018-08-11T22:45:59.454Z,69.40
2018-08-11T22:48:28.003Z,68.90
2018-08-11T22:50:56.579Z,68.70
2018-08-11T22:53:25.118Z,68.80
2018-08-11T22:55:53.636Z,69.60
2018-08-11T23:00:50.462Z,68.90
2018-08-11T23:03:19.276Z,69.00
2018-08-11T23:05:47.980Z,68.80
2018-08-11T23:08:18.000Z,68.90
2018-08-11T23:10:46.215Z,69.20
2018-08-11T23:13:14.626Z,69.90
2018-08-11T23:15:43.047Z,70.50
2018-08-11T23:18:11.382Z,71.50
2018-08-11T23:20:39.834Z,72.50
2018-08-11T23:23:08.024Z,72.50
2018-08-11T23:25:36.542Z,73.30
2018-08-11T23:28:04.900Z,72.80
2018-08-11T23:30:33.361Z,70.70
2018-08-11T23:33:02.673Z,69.70
2018-08-11T23:35:31.970Z,69.70
2018-08-11T23:38:00.421Z,69.40
2018-08-11T23:40:28.822Z,70.20
2018-08-11T23:42:57.332Z,70.20
2018-08-11T23:45:25.785Z,69.40
2018-08-11T23:47:55.065Z,70.30
2018-08-11T23:50:23.549Z,69.50
2018-08-11T23:52:51.858Z,69.80
2018-08-11T23:55:21.511Z,70.50
2018-08-11T23:57:49.955Z,70.10
